Archival Weather

Half Moon Bay

Half Moon Bay, California (KHAF)

Report from: Tuesday, September 19, 2023 1:35 AM PDT
Current time: Friday, June 21, 2024 3:53 PM PDT

Current weather – Weather history – Daily summaries
Weather forecast

Present weatherMist
Temperature15.0°C (59.0°F)
Dew point15.0°C (59.0°F)
Winds 5 kts (2.6 m/s, 5.8 mph) North-Northwest (330°)
Visibility6 mi. (9.7 km)
Clouds Ceiling: Overcast 600 ft. (183 m)
Altimeter30.01 in.Hg (1016 mB)
Relative humidity100 %
Density altitude134 ft. (41 m)
Remarks Fully automated report
Automated weather observing station with precipitation discriminator
Flight conditions Instrument Meteorological Conditions
Raw dataKHAF 190835Z AUTO 33005KT 6SM BR OVC006 15/15 A3001 RMK AO2
An error has occurred. This application may no longer respond until reloaded. Reload 🗙